Azusa, CA (91702)

8:37 PM PDT on October 25, 2014 (GMT -0700)
Mountain Cove Azusa Real Estate | Change Station
CLOSE
Current Station
Personal Weather Station
Location: By Dolf in AZUSA, CA
Elevation: 686 ft
Nearby Weather Stations

Elev 686 ft 34.15 °N, 117.91 °W | Updated 10 seconds ago

Clear
Clear
67.1 °F
Feels Like 67.1 °F
N
0.0
Wind Variable Wind from NW
Gusts 0.0 mph

Today
High -- | Low -- °F
--% Chance of Precip.
Yesterday
High -- | Low -- °F
Precip. -- in
7:05 AM 6:05 PM
Waxing Crescent, 5% visible
Pressure 29.97 in
Visibility 10.0 miles
Clouds Few 9000 ft
Dew Point 48 °F
Humidity 51%
Rainfall 0.00 in
Snow Depth Not available.
UV 0.0 out of 12
Pollen 3.80 out of 12
Ozone Good
PM2.5 Moderate
Flu Activity Sporadic
METAR KONT 260253Z 26009KT 10SM FEW090 22/11 A3000 RMK AO2 SLP147 T02170106 53004

More Conditions Fewer Conditions

Pressure 29.97 in
Visibility 10.0 miles
Clouds Few 9000 ft
Dew Point 48 °F
Humidity 51%
Rainfall 0.00 in
Snow Depth Not available.
UV 0.0 out of 12
Pollen 3.80 out of 12
Ozone Good
PM2.5 Moderate
Flu Activity Sporadic
METAR KONT 260253Z 26009KT 10SM FEW090 22/11 A3000 RMK AO2 SLP147 T02170106 53004

More Conditions Fewer Conditions

10-Day Weather Forecast

Almanac

Astronomy

Oct. 25, 2014 Rise Set
Actual Time 7:05 AM PDT 6:05 PM PDT
Civil Twilight 6:39 AM PDT 6:31 PM PDT
Nautical Twilight 6:10 AM PDT 7:00 PM PDT
Astronomical Twilight 5:41 AM PDT 7:29 PM PDT
Moon 8:45 AM PDT (10/25) 7:36 PM PDT (10/25)
Length of Visible Light 11h 51m
Length of Day
11h 00m
Tomorrow will be 1m 57s shorter.
Waxing Crescent, 5% of the Moon is Illuminated
Today
Waxing Crescent
Oct 30
First Quarter
Nov 6
Full
Nov 14
Last Quarter
Nov 22
New

Today's Extremes

State Highs State Lows

Community

WunderPhotos

Upload Photos

1,765,095 photos uploaded!

Nearby

Air Quality

  Air Quality AQ Index Pollutant
Yesterday Good
OZONE
Yesterday Good
PM10
Current Moderate
PM2.5
Current Good
OZONE
Sunday Good
PM10
Sunday Moderate
OZONE
Sunday Good
CO
Sunday Good
NO2

Snow Depth

Station Depth Elevation
Virginia Lakes Ridge 0 in 9200 ft
Leavitt Lake 2 in 9400 ft
Sonora Pass 0 in 8800 ft
Summit Meadow 0 in 9122 ft
Poison Flat 0 in 7900 ft

Earthquake Activity

City Distance Mag. Time & Date
Barstow, California 86 miles 2.9 2:48 PM PDT
2014-10-25
Running Springs, California 50 miles 3.1 4:07 AM PDT
2014-10-25
Brea, California 14 miles 2.9 3:35 PM PDT
2014-10-23
Brea, California 13 miles 2.8 3:34 PM PDT
2014-10-23
Minimum magnitude displayed is 2.5.

Coastal Water Temperatures

Place Temperature
No Stations Reporting

Nearby Weather Stations